Time;durP1;ratioP1;P1;durP2;ratioP2;P2;SDS_P1;SDS_P2;PMS_P1;PMS_P2;Temp;Humidity;BMP_temperature;BMP_pressure;BME280_temperature;BME280_humidity;BME280_pressure;Samples;Min_cycle;Max_cycle;Signal;HPM_P1;HPM_P2
2024/03/18 00:01:03;;;;;;;11.40;7.87;;;;;;;9.02;100.00;98303.06;4958698;28;20745;-80
2024/03/18 00:03:30;;;;;;;12.30;8.10;;;;;;;9.05;100.00;98302.03;4958045;28;20211;-81
2024/03/18 00:05:56;;;;;;;11.10;8.40;;;;;;;9.07;100.00;98289.59;4958568;29;20204;-81
2024/03/18 00:08:23;;;;;;;10.60;7.50;;;;;;;9.07;100.00;98276.41;4958531;29;20664;-82
2024/03/18 00:10:49;;;;;;;12.77;9.27;;;;;;;9.10;100.00;98278.84;4958186;28;20237;-82
2024/03/18 00:13:16;;;;;;;11.43;8.30;;;;;;;9.12;100.00;98283.09;4958737;29;20210;-81
2024/03/18 00:15:43;;;;;;;10.97;8.03;;;;;;;9.10;100.00;98284.13;4958509;28;20234;-81
2024/03/18 00:18:11;;;;;;;12.30;8.90;;;;;;;9.07;100.00;98273.78;4958549;28;20222;-81
2024/03/18 00:20:38;;;;;;;11.27;8.03;;;;;;;9.07;100.00;98279.06;4961345;29;20237;-82
2024/03/18 00:23:05;;;;;;;10.07;7.83;;;;;;;9.08;100.00;98276.34;4962630;29;20215;-80
2024/03/18 00:25:31;;;;;;;10.40;8.60;;;;;;;9.04;100.00;98279.22;4963855;28;20391;-82
2024/03/18 00:27:58;;;;;;;10.03;7.97;;;;;;;9.03;100.00;98278.41;4961621;29;20211;-82
2024/03/18 00:30:24;;;;;;;12.30;7.80;;;;;;;9.02;100.00;98275.84;4958992;29;20326;-81
2024/03/18 00:32:51;;;;;;;11.33;8.17;;;;;;;8.97;100.00;98278.75;4959395;28;20217;-81
2024/03/18 00:35:19;;;;;;;12.93;7.93;;;;;;;8.96;100.00;98269.16;4958758;29;20242;-82
2024/03/18 00:37:45;;;;;;;11.67;8.53;;;;;;;8.96;100.00;98273.56;4958236;29;20577;-82
2024/03/18 00:40:12;;;;;;;11.47;8.30;;;;;;;8.98;100.00;98271.69;4958915;28;20242;-82
2024/03/18 00:42:38;;;;;;;12.63;8.63;;;;;;;9.04;100.00;98268.69;4959172;28;20333;-81
2024/03/18 00:45:06;;;;;;;10.20;7.93;;;;;;;9.00;100.00;98267.19;4958940;28;20238;-81
2024/03/18 00:47:33;;;;;;;12.63;7.90;;;;;;;8.94;100.00;98262.28;4959123;29;20673;-81
2024/03/18 00:50:00;;;;;;;13.37;8.57;;;;;;;8.91;100.00;98262.47;4958653;29;20716;-82
2024/03/18 00:52:28;;;;;;;12.27;8.07;;;;;;;8.93;100.00;98268.50;4958443;28;20246;-81
2024/03/18 00:54:54;;;;;;;11.37;7.80;;;;;;;8.96;100.00;98260.41;4957525;28;20642;-83
2024/03/18 00:57:21;;;;;;;9.87;7.93;;;;;;;8.92;100.00;98256.25;4958613;29;20578;-82
2024/03/18 00:59:47;;;;;;;11.17;7.53;;;;;;;8.89;100.00;98248.53;4958648;28;20256;-81
2024/03/18 01:02:14;;;;;;;10.50;8.07;;;;;;;8.89;100.00;98251.16;4959083;28;20242;-81
2024/03/18 01:04:40;;;;;;;11.03;8.37;;;;;;;8.88;100.00;98246.84;4958808;28;20214;-81
2024/03/18 01:07:07;;;;;;;11.00;7.83;;;;;;;8.87;100.00;98239.88;4957632;28;20679;-81
2024/03/18 01:09:37;;;;;;;9.33;7.43;;;;;;;8.85;100.00;98236.47;4958738;29;20221;-81
2024/03/18 01:12:04;;;;;;;11.90;8.43;;;;;;;8.85;100.00;98231.19;4960262;28;20240;-81
2024/03/18 01:14:31;;;;;;;10.23;7.80;;;;;;;8.86;100.00;98232.91;4958919;28;20678;-80
2024/03/18 01:16:57;;;;;;;8.70;6.97;;;;;;;8.88;100.00;98228.41;4957630;29;20227;-81
2024/03/18 01:19:24;;;;;;;11.37;7.93;;;;;;;8.93;100.00;98228.97;4957769;29;20563;-80
2024/03/18 01:21:51;;;;;;;12.13;8.00;;;;;;;8.93;100.00;98229.78;4956307;28;20233;-81
2024/03/18 01:24:17;;;;;;;10.10;7.90;;;;;;;8.93;100.00;98221.06;4956061;29;20227;-81
2024/03/18 01:26:45;;;;;;;11.27;8.37;;;;;;;8.91;100.00;98210.59;4956580;28;20211;-81
2024/03/18 01:29:11;;;;;;;10.47;8.10;;;;;;;8.91;100.00;98212.38;4956264;29;20230;-81
2024/03/18 01:31:38;;;;;;;10.40;7.90;;;;;;;8.90;100.00;98208.91;4955988;29;20253;-80
2024/03/18 01:34:04;;;;;;;13.67;9.23;;;;;;;8.90;100.00;98206.28;4956069;29;20720;-81
2024/03/18 01:36:32;;;;;;;12.73;8.97;;;;;;;8.90;100.00;98205.41;4956266;29;20238;-81
2024/03/18 01:38:59;;;;;;;12.17;9.00;;;;;;;8.88;100.00;98204.69;4958359;28;20227;-81
2024/03/18 01:41:26;;;;;;;10.97;8.87;;;;;;;8.85;100.00;98199.56;4957405;29;20238;-81
2024/03/18 01:43:53;;;;;;;11.73;9.40;;;;;;;8.82;100.00;98202.41;4957287;29;20214;-80
2024/03/18 01:46:20;;;;;;;11.43;8.60;;;;;;;8.83;100.00;98197.06;4956269;29;20216;-81
2024/03/18 01:48:47;;;;;;;11.83;9.03;;;;;;;8.83;100.00;98201.47;4955902;28;20218;-80
2024/03/18 01:51:14;;;;;;;10.03;8.07;;;;;;;8.82;100.00;98197.16;4955637;28;20253;-79
2024/03/18 01:53:42;;;;;;;10.30;8.57;;;;;;;8.80;100.00;98191.97;4955683;29;20210;-80
2024/03/18 01:56:10;;;;;;;12.83;9.27;;;;;;;8.86;100.00;98191.59;4955917;29;20646;-80
2024/03/18 01:58:38;;;;;;;11.13;8.20;;;;;;;8.77;100.00;98184.25;4955371;29;20218;-80
2024/03/18 02:01:07;;;;;;;11.03;8.70;;;;;;;8.77;100.00;98192.16;4955298;28;20791;-80
2024/03/18 02:03:33;;;;;;;10.70;8.53;;;;;;;8.78;100.00;98187.72;4955673;29;20214;-80
2024/03/18 02:06:00;;;;;;;11.50;8.47;;;;;;;8.79;100.00;98190.28;4955354;29;20211;-80
2024/03/18 02:08:27;;;;;;;9.33;7.30;;;;;;;8.80;100.00;98180.56;4955247;28;20312;-80
2024/03/18 02:10:54;;;;;;;10.90;7.53;;;;;;;8.81;100.00;98182.28;4954719;28;20656;-80
2024/03/18 02:13:20;;;;;;;9.80;7.97;;;;;;;8.82;100.00;98183.97;4955479;29;20243;-80
2024/03/18 02:15:46;;;;;;;10.30;7.73;;;;;;;8.84;100.00;98182.94;4955080;29;20218;-80
2024/03/18 02:18:14;;;;;;;11.43;7.53;;;;;;;8.85;100.00;98175.84;4954906;29;20218;-80
2024/03/18 02:20:40;;;;;;;12.80;8.13;;;;;;;8.85;100.00;98167.94;4955201;29;20229;-80
2024/03/18 02:23:09;;;;;;;9.50;7.27;;;;;;;8.86;100.00;98170.50;4955386;28;20223;-79
2024/03/18 02:25:36;;;;;;;11.23;7.97;;;;;;;8.87;100.00;98166.09;4955364;29;20674;-79
2024/03/18 02:28:03;;;;;;;10.93;8.00;;;;;;;8.86;100.00;98159.97;4954691;28;20686;-80
2024/03/18 02:30:30;;;;;;;11.23;7.67;;;;;;;8.84;100.00;98158.34;4954391;29;20232;-80
2024/03/18 02:32:56;;;;;;;11.03;8.30;;;;;;;8.85;100.00;98162.69;4954977;29;20211;-80
2024/03/18 02:35:23;;;;;;;10.17;8.17;;;;;;;8.84;100.00;98155.72;4956031;29;20686;-82
2024/03/18 02:37:49;;;;;;;8.33;7.10;;;;;;;8.84;100.00;98153.09;4956832;29;20721;-80
2024/03/18 02:40:17;;;;;;;10.90;7.87;;;;;;;8.86;100.00;98151.19;4956489;28;20213;-79
2024/03/18 02:42:44;;;;;;;11.10;7.60;;;;;;;8.84;100.00;98139.91;4956404;29;20217;-79
2024/03/18 02:45:12;;;;;;;9.60;7.33;;;;;;;8.83;100.00;98135.59;4955600;28;20333;-80
2024/03/18 02:47:39;;;;;;;7.83;7.03;;;;;;;8.82;100.00;98136.53;4955373;28;20212;-80
2024/03/18 02:50:07;;;;;;;9.47;6.87;;;;;;;8.81;100.00;98134.84;4955766;29;20215;-80
2024/03/18 02:52:33;;;;;;;10.50;7.07;;;;;;;8.78;100.00;98130.59;4955578;29;20221;-80
2024/03/18 02:55:00;;;;;;;10.17;7.50;;;;;;;8.79;100.00;98120.91;4961255;29;20210;-80
2024/03/18 02:57:28;;;;;;;8.70;6.87;;;;;;;8.80;100.00;98119.94;4962287;29;20605;-80
2024/03/18 02:59:56;;;;;;;10.43;7.63;;;;;;;8.80;100.00;98117.31;4962018;29;20221;-80
2024/03/18 03:02:22;;;;;;;10.53;7.10;;;;;;;8.78;100.00;98124.47;4959733;29;20327;-80
2024/03/18 03:04:49;;;;;;;9.07;6.97;;;;;;;8.75;100.00;98106.25;4957382;29;20211;-80
2024/03/18 03:07:15;;;;;;;9.13;6.97;;;;;;;8.74;100.00;98107.16;4957131;29;20207;-80
2024/03/18 03:09:42;;;;;;;10.10;7.67;;;;;;;8.75;100.00;98107.06;4957167;29;20207;-80
2024/03/18 03:12:10;;;;;;;10.17;7.53;;;;;;;8.82;100.00;98097.84;4956468;28;20261;-80
2024/03/18 03:14:41;;;;;;;12.03;7.50;;;;;;;8.91;100.00;98088.50;4956763;29;20246;-80
2024/03/18 03:17:08;;;;;;;9.63;7.03;;;;;;;8.81;100.00;98092.69;4956562;29;20277;-80
2024/03/18 03:19:34;;;;;;;9.03;7.37;;;;;;;8.73;100.00;98094.94;4956702;29;20225;-81
2024/03/18 03:22:02;;;;;;;8.93;7.10;;;;;;;8.70;100.00;98101.22;4955166;28;20233;-80
2024/03/18 03:24:30;;;;;;;10.30;6.93;;;;;;;8.66;100.00;98106.78;4958703;29;20210;-80
2024/03/18 03:26:57;;;;;;;9.70;6.90;;;;;;;8.62;100.00;98102.69;4958978;29;20210;-80
2024/03/18 03:29:23;;;;;;;8.13;6.80;;;;;;;8.62;100.00;98098.22;4958904;28;20712;-80
2024/03/18 03:31:51;;;;;;;8.50;7.53;;;;;;;8.62;100.00;98100.88;4958793;28;20600;-81
2024/03/18 03:34:18;;;;;;;9.30;7.43;;;;;;;8.61;100.00;98090.41;4959227;29;20211;-80
2024/03/18 03:36:47;;;;;;;10.83;7.67;;;;;;;8.61;100.00;98086.00;4958881;28;20235;-80
2024/03/18 03:39:13;;;;;;;13.80;8.33;;;;;;;8.64;100.00;98085.81;4958881;28;20674;-80
2024/03/18 03:41:41;;;;;;;10.80;7.30;;;;;;;8.63;100.00;98085.94;4958827;29;20254;-81
2024/03/18 03:44:08;;;;;;;10.77;7.80;;;;;;;8.61;100.00;98090.41;4959191;28;20211;-80
2024/03/18 03:46:34;;;;;;;10.83;7.80;;;;;;;8.59;100.00;98087.91;4959043;29;20210;-80
2024/03/18 03:49:03;;;;;;;10.20;7.57;;;;;;;8.61;100.00;98085.16;4959049;29;20227;-80
2024/03/18 03:51:29;;;;;;;9.63;8.13;;;;;;;8.66;100.00;98078.69;4958508;29;20257;-81
2024/03/18 03:53:57;;;;;;;14.20;8.73;;;;;;;8.68;100.00;98073.28;4958807;29;20214;-80
2024/03/18 03:56:23;;;;;;;11.00;8.73;;;;;;;8.68;100.00;98076.78;4958634;29;20227;-79
2024/03/18 03:58:50;;;;;;;10.33;7.87;;;;;;;8.70;100.00;98071.41;4958524;28;20211;-80
2024/03/18 04:01:17;;;;;;;9.60;7.37;;;;;;;8.68;100.00;98066.25;4957445;29;20732;-80
2024/03/18 04:03:44;;;;;;;11.17;8.17;;;;;;;8.68;100.00;98065.38;4958427;29;20219;-80
2024/03/18 04:06:12;;;;;;;8.90;7.93;;;;;;;8.65;100.00;98053.28;4958180;29;20236;-80
2024/03/18 04:08:38;;;;;;;11.70;7.80;;;;;;;8.61;100.00;98043.00;4958271;28;20211;-80
2024/03/18 04:11:05;;;;;;;9.83;7.83;;;;;;;8.60;100.00;98049.22;4957897;29;20240;-80
2024/03/18 04:13:32;;;;;;;10.23;7.63;;;;;;;8.57;100.00;98041.53;4958102;29;20626;-80
2024/03/18 04:15:58;;;;;;;10.23;7.77;;;;;;;8.53;100.00;98032.09;4958034;28;20605;-80
2024/03/18 04:18:25;;;;;;;9.10;7.57;;;;;;;8.50;100.00;98034.94;4958121;29;20260;-80
2024/03/18 04:20:53;;;;;;;8.70;6.63;;;;;;;8.46;100.00;98030.81;4957692;28;20235;-80
2024/03/18 04:23:21;;;;;;;11.83;7.23;;;;;;;8.43;100.00;98033.59;4958892;29;20582;-80
2024/03/18 04:25:48;;;;;;;11.43;7.13;;;;;;;8.37;100.00;98034.84;4956493;28;20215;-80
2024/03/18 04:28:14;;;;;;;9.63;6.90;;;;;;;8.30;100.00;98038.81;4958147;29;20555;-80
2024/03/18 04:30:42;;;;;;;9.63;6.63;;;;;;;8.23;100.00;98037.50;4957344;29;20243;-80
2024/03/18 04:33:09;;;;;;;9.63;7.17;;;;;;;8.18;100.00;98036.91;4957982;28;20208;-80
2024/03/18 04:35:35;;;;;;;10.23;7.50;;;;;;;8.18;100.00;98036.03;4958082;29;20257;-81
2024/03/18 04:38:02;;;;;;;9.77;7.70;;;;;;;8.19;100.00;98030.72;4958066;29;20244;-81
2024/03/18 04:40:30;;;;;;;9.40;7.20;;;;;;;8.23;100.00;98036.63;4957825;28;20234;-81
2024/03/18 04:42:56;;;;;;;10.70;8.10;;;;;;;8.27;100.00;98038.16;4957722;29;20211;-81
2024/03/18 04:45:23;;;;;;;9.73;7.87;;;;;;;8.33;100.00;98021.97;4959055;29;20660;-80
2024/03/18 04:47:52;;;;;;;11.00;8.27;;;;;;;8.38;100.00;98019.91;4958612;28;20774;-80
2024/03/18 04:50:20;;;;;;;11.63;8.60;;;;;;;8.41;100.00;98017.94;4958854;28;20205;-81
2024/03/18 04:52:47;;;;;;;10.73;7.63;;;;;;;8.43;100.00;98023.94;4958516;28;20211;-81
2024/03/18 04:55:15;;;;;;;13.83;8.83;;;;;;;8.45;100.00;98013.31;4959328;28;20213;-81
2024/03/18 04:57:42;;;;;;;9.87;7.87;;;;;;;8.50;100.00;98011.25;4958433;28;20239;-81
2024/03/18 05:00:14;;;;;;;11.87;8.53;;;;;;;8.51;100.00;98005.03;4958131;29;20223;-80
2024/03/18 05:02:41;;;;;;;10.97;8.03;;;;;;;8.54;100.00;98005.69;4958371;29;20226;-81
2024/03/18 05:05:09;;;;;;;12.93;8.47;;;;;;;8.58;100.00;98008.97;4958978;28;20219;-81
2024/03/18 05:07:36;;;;;;;10.83;7.97;;;;;;;8.59;100.00;98010.66;4958577;28;20210;-81
2024/03/18 05:10:03;;;;;;;12.40;8.33;;;;;;;8.61;100.00;98012.25;4958747;29;20214;-81
2024/03/18 05:12:30;;;;;;;8.93;7.63;;;;;;;8.65;100.00;98012.91;4958850;29;20218;-81
2024/03/18 05:14:58;;;;;;;13.10;8.23;;;;;;;8.63;100.00;98015.63;4958534;28;20263;-81
2024/03/18 05:17:24;;;;;;;10.20;8.07;;;;;;;8.68;100.00;98018.81;4959832;29;20277;-81
2024/03/18 05:19:52;;;;;;;11.27;8.33;;;;;;;8.67;100.00;98016.28;4961781;29;20434;-81
2024/03/18 05:22:20;;;;;;;11.03;7.10;;;;;;;8.61;100.00;98017.50;4959136;29;20304;-81
2024/03/18 05:24:47;;;;;;;9.83;7.80;;;;;;;8.53;100.00;98013.66;4957584;29;20229;-81
2024/03/18 05:27:14;;;;;;;8.73;7.13;;;;;;;8.54;100.00;98018.00;4957657;28;20214;-81
2024/03/18 05:29:41;;;;;;;9.63;6.93;;;;;;;8.55;100.00;98004.72;4959806;29;20213;-79
2024/03/18 05:32:12;;;;;;;9.13;7.20;;;;;;;8.57;100.00;98009.91;4960045;29;20240;-80
2024/03/18 05:34:39;;;;;;;9.50;7.53;;;;;;;8.62;100.00;98007.84;4965909;29;20222;-82
2024/03/18 05:37:06;;;;;;;11.53;7.90;;;;;;;8.61;100.00;98011.38;4958732;28;20234;-80
2024/03/18 05:39:33;;;;;;;10.57;7.73;;;;;;;8.59;100.00;98003.59;4958787;29;20217;-80
2024/03/18 05:42:00;;;;;;;10.33;7.53;;;;;;;8.62;100.00;98005.19;4958185;28;20241;-80
2024/03/18 05:44:27;;;;;;;11.03;7.90;;;;;;;8.66;100.00;98009.31;4958444;29;20218;-80
2024/03/18 05:46:53;;;;;;;10.60;7.40;;;;;;;8.69;100.00;98003.88;4957468;28;20214;-81
2024/03/18 05:49:21;;;;;;;9.83;7.37;;;;;;;8.69;100.00;97998.59;4957840;29;20222;-81
2024/03/18 05:51:48;;;;;;;13.13;7.83;;;;;;;8.70;100.00;97990.56;4957398;28;20264;-81
2024/03/18 05:54:15;;;;;;;11.40;7.77;;;;;;;8.72;100.00;97998.38;4957962;29;20635;-81
2024/03/18 05:56:42;;;;;;;11.40;8.00;;;;;;;8.72;100.00;97998.38;4957239;28;20252;-81
2024/03/18 05:59:10;;;;;;;9.83;7.70;;;;;;;8.74;100.00;97991.22;4957865;29;20403;-80
2024/03/18 06:01:36;;;;;;;9.53;6.97;;;;;;;8.76;100.00;97987.53;4956967;28;20301;-81
2024/03/18 06:04:03;;;;;;;11.67;7.10;;;;;;;8.79;100.00;97994.41;4957308;29;20221;-80
2024/03/18 06:06:32;;;;;;;8.30;6.43;;;;;;;8.78;100.00;97992.72;4957517;29;20217;-81
2024/03/18 06:08:59;;;;;;;9.33;7.20;;;;;;;8.80;100.00;97996.09;4957155;29;20267;-80
2024/03/18 06:11:26;;;;;;;10.63;7.03;;;;;;;8.74;100.00;98002.63;4957409;29;20308;-80
2024/03/18 06:13:53;;;;;;;10.37;6.30;;;;;;;8.75;100.00;97995.56;4957065;29;20214;-80
2024/03/18 06:16:19;;;;;;;12.03;7.77;;;;;;;8.79;100.00;98004.94;4957439;28;20694;-80
2024/03/18 06:18:47;;;;;;;8.47;6.60;;;;;;;8.76;100.00;98000.72;4957451;29;20238;-81
2024/03/18 06:21:16;;;;;;;10.00;6.80;;;;;;;8.77;100.00;98001.59;4956904;29;20238;-81
2024/03/18 06:23:47;;;;;;;8.87;6.30;;;;;;;8.76;100.00;97999.91;4956569;29;20680;-81
2024/03/18 06:26:12;;;;;;;9.20;6.60;;;;;;;8.75;100.00;98008.75;4957239;29;20219;-81
2024/03/18 06:28:40;;;;;;;11.10;6.93;;;;;;;8.74;100.00;98009.66;4956749;28;20602;-81
2024/03/18 06:31:06;;;;;;;9.50;7.27;;;;;;;8.74;100.00;98007.88;4956874;29;20706;-80
2024/03/18 06:33:33;;;;;;;8.17;6.40;;;;;;;8.77;100.00;97996.31;4957293;29;20215;-81
2024/03/18 06:36:02;;;;;;;7.90;6.47;;;;;;;8.80;100.00;97998.72;4956816;29;20229;-81
2024/03/18 06:38:28;;;;;;;9.10;6.67;;;;;;;8.83;100.00;98006.47;4956698;28;20227;-81
2024/03/18 06:40:56;;;;;;;11.67;7.73;;;;;;;8.94;100.00;98010.09;4956605;29;20608;-80
2024/03/18 06:43:23;;;;;;;9.53;7.57;;;;;;;8.97;100.00;98019.59;4957106;29;20218;-81
2024/03/18 06:45:49;;;;;;;9.27;6.80;;;;;;;8.98;100.00;98010.72;4956525;29;20217;-80
2024/03/18 06:48:16;;;;;;;8.20;6.33;;;;;;;8.99;100.00;98020.34;4957091;29;20208;-80
2024/03/18 06:50:42;;;;;;;8.50;6.30;;;;;;;9.02;100.00;98022.78;4956666;29;20725;-81
2024/03/18 06:53:09;;;;;;;9.20;7.10;;;;;;;9.09;100.00;98014.38;4957400;29;20206;-81
2024/03/18 06:55:36;;;;;;;9.93;7.33;;;;;;;9.07;100.00;98023.34;4956751;28;20214;-80
2024/03/18 06:58:04;;;;;;;11.90;7.40;;;;;;;9.09;100.00;98026.69;4956359;28;20240;-81
2024/03/18 07:00:31;;;;;;;9.83;7.37;;;;;;;9.07;100.00;98025.97;4955962;28;20236;-82
2024/03/18 07:02:58;;;;;;;11.07;7.57;;;;;;;9.11;100.00;98027.47;4956706;28;20417;-80
2024/03/18 07:05:26;;;;;;;10.13;7.33;;;;;;;9.12;100.00;98027.34;4955393;29;20219;-79
2024/03/18 07:07:53;;;;;;;9.73;7.63;;;;;;;9.16;100.00;98031.47;4954503;29;20681;-78
2024/03/18 07:10:20;;;;;;;10.43;8.23;;;;;;;9.19;100.00;98031.28;4953401;28;20222;-78
2024/03/18 07:12:47;;;;;;;11.73;8.80;;;;;;;9.22;100.00;98036.34;4954144;29;20502;-78
2024/03/18 07:15:17;;;;;;;15.23;8.70;;;;;;;9.26;100.00;98034.38;4958173;28;20206;-77
2024/03/18 07:17:44;;;;;;;12.20;8.67;;;;;;;9.27;100.00;98033.41;4970967;28;20544;-77
2024/03/18 07:20:12;;;;;;;11.37;8.00;;;;;;;9.24;100.00;98044.19;4972255;28;20217;-77
2024/03/18 07:22:40;;;;;;;14.40;8.37;;;;;;;9.24;100.00;98033.63;4972222;28;20221;-79
2024/03/18 07:25:09;;;;;;;15.57;8.93;;;;;;;9.23;100.00;98031.94;4972869;28;20216;-79
2024/03/18 07:27:37;;;;;;;11.90;8.73;;;;;;;9.29;100.00;98036.78;4973083;28;20207;-80
2024/03/18 07:30:04;;;;;;;12.90;9.67;;;;;;;9.29;100.00;98039.41;4972965;28;20617;-80
2024/03/18 07:32:32;;;;;;;12.70;9.60;;;;;;;9.27;100.00;98036.06;4973322;28;20663;-80
2024/03/18 07:34:58;;;;;;;13.83;9.70;;;;;;;9.28;100.00;98035.09;4973859;28;20213;-79
2024/03/18 07:37:26;;;;;;;14.47;9.63;;;;;;;9.31;100.00;98033.09;4973223;28;20214;-79
2024/03/18 07:39:52;;;;;;;13.77;9.77;;;;;;;9.31;100.00;98025.19;4973681;28;20214;-79
2024/03/18 07:42:19;;;;;;;12.93;9.27;;;;;;;9.33;100.00;98022.47;4972989;28;20318;-80
2024/03/18 07:44:46;;;;;;;11.53;8.63;;;;;;;9.38;100.00;98025.66;4972454;28;20207;-81
2024/03/18 07:47:12;;;;;;;13.07;10.03;;;;;;;9.40;100.00;98021.09;4971691;28;20894;-79
2024/03/18 07:49:40;;;;;;;12.20;8.90;;;;;;;9.42;100.00;98024.50;4973451;28;20214;-80
2024/03/18 07:52:08;;;;;;;11.47;8.03;;;;;;;9.44;100.00;98025.25;4972876;28;20341;-80
2024/03/18 07:54:34;;;;;;;11.93;8.37;;;;;;;9.47;100.00;98025.03;4973754;28;20222;-80
2024/03/18 07:57:01;;;;;;;13.60;8.60;;;;;;;9.50;100.00;98016.91;4973634;28;20240;-79
2024/03/18 07:59:28;;;;;;;10.70;8.53;;;;;;;9.51;100.00;98015.97;4973431;28;20336;-80
2024/03/18 08:01:55;;;;;;;13.70;9.07;;;;;;;9.60;100.00;98018.00;4976128;28;20238;-80
2024/03/18 08:04:21;;;;;;;12.17;8.33;;;;;;;9.64;100.00;98022.13;4981847;28;20210;-80
2024/03/18 08:06:49;;;;;;;12.57;9.07;;;;;;;9.67;100.00;98024.56;4982435;28;20224;-80
2024/03/18 08:09:17;;;;;;;12.17;9.57;;;;;;;9.71;100.00;98016.31;4984104;28;20212;-80
2024/03/18 08:11:44;;;;;;;11.47;8.97;;;;;;;9.69;100.00;98020.88;4982306;28;20237;-80
2024/03/18 08:14:10;;;;;;;14.20;9.37;;;;;;;9.71;100.00;98020.75;4982706;28;20217;-80
2024/03/18 08:16:37;;;;;;;13.97;9.57;;;;;;;9.69;100.00;98020.00;4982284;28;20209;-80
2024/03/18 08:19:04;;;;;;;11.80;8.90;;;;;;;9.68;100.00;98016.50;4981435;28;20360;-80
2024/03/18 08:21:31;;;;;;;10.23;8.17;;;;;;;9.69;100.00;98017.38;4980151;28;20232;-80
2024/03/18 08:24:00;;;;;;;12.80;9.17;;;;;;;9.71;100.00;98010.19;4978252;28;20217;-81
2024/03/18 08:26:28;;;;;;;15.10;10.13;;;;;;;9.74;100.00;98017.91;4978478;28;20209;-80
2024/03/18 08:28:54;;;;;;;13.73;9.93;;;;;;;9.72;100.00;98019.81;4977535;28;20210;-80
2024/03/18 08:31:21;;;;;;;14.90;10.37;;;;;;;9.71;100.00;98020.75;4976642;28;20230;-79
2024/03/18 08:33:47;;;;;;;14.47;9.50;;;;;;;9.73;100.00;98026.78;4976574;28;20237;-80
2024/03/18 08:36:14;;;;;;;15.03;9.63;;;;;;;9.72;100.00;98025.94;4976002;28;20217;-80
2024/03/18 08:38:40;;;;;;;12.13;9.03;;;;;;;9.71;100.00;98039.22;4977263;28;20698;-80
2024/03/18 08:41:11;;;;;;;12.77;9.70;;;;;;;9.77;100.00;98041.44;4976881;28;20252;-80
2024/03/18 08:43:37;;;;;;;15.00;9.73;;;;;;;9.66;100.00;98041.34;4976405;28;20215;-80
2024/03/18 08:46:06;;;;;;;12.93;10.33;;;;;;;9.74;100.00;98039.03;4976276;28;20216;-80
2024/03/18 08:48:32;;;;;;;14.00;9.93;;;;;;;9.71;100.00;98039.22;4976801;28;20231;-80
2024/03/18 08:50:59;;;;;;;12.37;10.03;;;;;;;9.70;100.00;98035.75;4976949;28;20241;-80
2024/03/18 08:53:26;;;;;;;14.07;10.27;;;;;;;9.74;100.00;98028.47;4977780;28;20210;-80
2024/03/18 08:55:52;;;;;;;13.40;9.83;;;;;;;9.78;100.00;98032.59;4978503;28;20597;-79
2024/03/18 08:58:20;;;;;;;15.27;11.20;;;;;;;9.87;100.00;98039.88;4976297;28;20230;-79
2024/03/18 09:00:46;;;;;;;16.87;11.27;;;;;;;9.90;100.00;98026.50;4975745;28;20251;-79
2024/03/18 09:03:13;;;;;;;14.00;10.20;;;;;;;9.94;100.00;98030.59;4975921;28;20234;-79
2024/03/18 09:05:40;;;;;;;17.67;10.90;;;;;;;9.95;100.00;98029.66;4976738;28;20213;-79
2024/03/18 09:08:06;;;;;;;12.40;9.57;;;;;;;10.02;100.00;98036.19;4976508;28;20212;-80
2024/03/18 09:10:33;;;;;;;13.03;9.67;;;;;;;10.10;100.00;98031.28;4975625;28;20231;-79
2024/03/18 09:13:00;;;;;;;14.30;10.30;;;;;;;10.20;100.00;98029.69;4976185;28;20214;-80
2024/03/18 09:15:27;;;;;;;16.20;10.47;;;;;;;10.27;100.00;98030.97;4976289;28;20216;-80
2024/03/18 09:17:54;;;;;;;17.50;11.27;;;;;;;10.33;100.00;98027.91;4976245;28;20240;-80
2024/03/18 09:20:21;;;;;;;16.20;10.37;;;;;;;10.36;100.00;98035.59;4975108;28;20219;-80
2024/03/18 09:22:48;;;;;;;12.50;9.93;;;;;;;10.39;100.00;98032.75;4976151;28;20229;-80
2024/03/18 09:25:15;;;;;;;14.13;10.90;;;;;;;10.44;100.00;98036.75;4976169;28;20208;-80
2024/03/18 09:27:42;;;;;;;16.40;10.70;;;;;;;10.47;100.00;98036.53;4976906;28;20696;-80
2024/03/18 09:30:09;;;;;;;12.73;10.27;;;;;;;10.54;100.00;98036.94;4977842;28;20214;-80
2024/03/18 09:32:37;;;;;;;15.93;10.87;;;;;;;10.53;100.00;98043.19;4976209;28;20594;-80
2024/03/18 09:35:03;;;;;;;13.70;10.50;;;;;;;10.50;100.00;98041.59;4974548;28;20221;-80
2024/03/18 09:37:30;;;;;;;17.93;10.53;;;;;;;10.49;100.00;98044.34;4975024;28;20209;-80
2024/03/18 09:39:57;;;;;;;16.77;11.00;;;;;;;10.48;100.00;98040.03;4974693;28;20721;-80
2024/03/18 09:42:24;;;;;;;15.37;10.33;;;;;;;10.56;100.00;98045.59;4974221;28;20595;-80
2024/03/18 09:44:51;;;;;;;13.57;10.23;;;;;;;10.64;100.00;98036.19;4974730;28;20222;-80
2024/03/18 09:47:21;;;;;;;19.33;12.80;;;;;;;10.75;100.00;98040.69;4974285;28;20210;-80
2024/03/18 09:49:50;;;;;;;13.17;10.57;;;;;;;10.77;100.00;98055.50;4974577;28;20206;-80
2024/03/18 09:52:17;;;;;;;13.30;9.90;;;;;;;10.77;100.00;98055.50;4973948;28;20246;-80
2024/03/18 09:54:46;;;;;;;13.17;10.47;;;;;;;10.82;100.00;98058.66;4974238;28;20232;-80
2024/03/18 09:57:16;;;;;;;12.43;10.43;;;;;;;10.81;100.00;98048.19;4975155;28;20217;-80
2024/03/18 09:59:43;;;;;;;12.10;9.77;;;;;;;10.88;100.00;98057.41;4974220;28;20399;-80
2024/03/18 10:02:14;;;;;;;13.63;9.73;;;;;;;10.93;100.00;98055.25;4974170;28;20239;-80
2024/03/18 10:04:41;;;;;;;12.97;9.50;;;;;;;11.01;100.00;98059.03;4973908;28;20216;-80
2024/03/18 10:07:13;;;;;;;12.17;9.53;;;;;;;11.05;100.00;98057.00;4973844;28;20217;-80
2024/03/18 10:09:40;;;;;;;13.73;8.83;;;;;;;11.06;100.00;98053.44;4973969;28;20264;-80
2024/03/18 10:12:12;;;;;;;12.37;8.33;;;;;;;11.09;100.00;98059.34;4974104;28;20235;-80
2024/03/18 10:14:38;;;;;;;11.97;8.17;;;;;;;11.15;100.00;98058.91;4973611;28;20688;-80
2024/03/18 10:17:06;;;;;;;9.83;8.00;;;;;;;11.20;100.00;98062.03;4973938;28;20645;-80
2024/03/18 10:19:33;;;;;;;10.83;8.70;;;;;;;11.23;100.00;98061.84;4973570;28;20238;-80
2024/03/18 10:21:59;;;;;;;10.47;7.80;;;;;;;11.18;100.00;98068.44;4973576;28;20239;-80
2024/03/18 10:24:28;;;;;;;13.20;8.07;;;;;;;11.26;100.00;98072.16;4973680;28;20213;-80
2024/03/18 10:26:54;;;;;;;12.67;8.73;;;;;;;11.25;100.00;98072.31;4973570;28;20206;-80
2024/03/18 10:29:21;;;;;;;10.53;7.47;;;;;;;11.24;100.00;98073.25;4973801;28;20225;-80
2024/03/18 10:31:47;;;;;;;10.03;7.63;;;;;;;11.29;100.00;98068.47;4973170;28;20236;-80
2024/03/18 10:34:21;;;;;;;13.77;7.80;;;;;;;11.24;100.00;98065.31;4976027;28;20210;-80
2024/03/18 10:36:51;;;;;;;9.33;7.43;;;;;;;11.29;100.00;98071.09;4982856;28;20674;-80
2024/03/18 10:39:25;;;;;;;9.27;7.07;;;;;;;11.29;100.00;98071.09;4981294;28;20582;-80
2024/03/18 10:41:55;;;;;;;11.47;7.67;;;;;;;11.27;100.00;98070.38;4980322;28;20237;-81
2024/03/18 10:44:22;;;;;;;9.57;7.07;;;;;;;11.22;100.00;98068.09;4975658;28;20589;-80
2024/03/18 10:46:49;;;;;;;9.70;7.00;;;;;;;11.18;100.00;98076.34;4975674;28;20205;-80
2024/03/18 10:49:17;;;;;;;9.00;6.83;;;;;;;11.15;100.00;98073.91;4975208;28;20241;-81
2024/03/18 10:51:46;;;;;;;9.50;6.57;;;;;;;11.18;100.00;98071.91;4974497;28;20238;-81
2024/03/18 10:54:15;;;;;;;10.53;7.00;;;;;;;11.18;100.00;98076.34;4974892;28;20236;-81
2024/03/18 10:56:43;;;;;;;9.87;6.73;;;;;;;11.10;100.00;98078.69;4976330;28;20216;-83
2024/03/18 10:59:13;;;;;;;8.77;7.00;;;;;;;11.05;100.00;98083.47;4976136;28;20234;-81
2024/03/18 11:01:40;;;;;;;9.47;7.50;;;;;;;11.07;100.00;98081.56;4974983;28;20592;-81
2024/03/18 11:04:18;;;;;;;10.07;8.00;;;;;;;11.11;100.00;98080.38;4977051;28;20213;-81
2024/03/18 11:06:47;;;;;;;9.90;8.30;;;;;;;11.18;100.00;98079.00;4977199;28;20622;-78
2024/03/18 11:09:14;;;;;;;12.30;7.93;;;;;;;11.17;100.00;98090.50;4975407;28;20210;-82
2024/03/18 11:11:43;;;;;;;10.33;7.27;;;;;;;11.09;100.00;98083.16;4974484;28;20277;-81
2024/03/18 11:14:12;;;;;;;10.43;7.77;;;;;;;11.11;100.00;98085.66;4974700;28;20224;-81
2024/03/18 11:16:43;;;;;;;10.70;8.30;;;;;;;11.11;100.00;98086.53;4975598;28;20432;-78
2024/03/18 11:19:09;;;;;;;11.63;10.10;;;;;;;11.13;100.00;98097.00;4974843;28;20552;-79
2024/03/18 11:21:36;;;;;;;11.67;8.40;;;;;;;11.09;100.00;98092.88;4975106;28;20233;-80
2024/03/18 11:24:03;;;;;;;9.20;7.63;;;;;;;11.09;100.00;98095.53;4976766;28;20210;-80